Time;durP1;ratioP1;P1;durP2;ratioP2;P2;SDS_P1;SDS_P2;PMS_P1;PMS_P2;Temp;Humidity;BMP_temperature;BMP_pressure;BME280_temperature;BME280_humidity;BME280_pressure;Samples;Min_cycle;Max_cycle;Signal;HPM_P1;HPM_P2
2023/03/23 00:00:12;;;;;;;;;;;;;;;19.42;56.35;99939.84;2280563;77;50760;-74
2023/03/23 00:03:11;;;;;;;;;;;;;;;19.42;56.31;99938.50;2311874;77;21771;-74
2023/03/23 00:06:16;;;;;;;;;;;;;;;19.42;56.34;99938.99;2311929;77;51585;-73
2023/03/23 00:09:17;;;;;;;;;;;;;;;19.43;56.34;99936.64;2312037;76;22326;-75
2023/03/23 00:12:19;;;;;;;;;;;;;;;19.43;56.30;99927.25;2281082;77;51501;-76
2023/03/23 00:15:24;;;;;;;;;;;;;;;19.41;56.36;99918.58;2312011;76;52232;-76
2023/03/23 00:18:24;;;;;;;;;;;;;;;19.40;56.35;99911.57;2281387;77;23261;-75
2023/03/23 00:21:35;;;;;;;;;;;;;;;19.40;56.36;99908.89;2288974;76;52502;-74
2023/03/23 00:24:37;;;;;;;;;;;;;;;19.40;56.33;99905.69;2284329;77;51615;-75
2023/03/23 00:27:39;;;;;;;;;;;;;;;19.38;56.46;99908.27;2311999;77;50307;-75
2023/03/23 00:30:41;;;;;;;;;;;;;;;19.39;56.36;99911.25;2311866;77;50336;-75
2023/03/23 00:33:43;;;;;;;;;;;;;;;19.38;56.37;99902.90;2280410;77;51769;-74
2023/03/23 00:36:45;;;;;;;;;;;;;;;19.37;56.37;99896.72;2311812;77;50692;-74
2023/03/23 00:39:47;;;;;;;;;;;;;;;19.38;56.32;99884.13;2311917;77;50486;-75
2023/03/23 00:42:48;;;;;;;;;;;;;;;19.38;56.30;99890.83;2280573;77;50228;-75
2023/03/23 00:45:52;;;;;;;;;;;;;;;19.38;56.30;99881.44;2280285;77;51691;-75
2023/03/23 00:48:53;;;;;;;;;;;;;;;19.38;56.32;99886.28;2281272;77;22330;-74
2023/03/23 00:51:58;;;;;;;;;;;;;;;19.34;56.44;99870.28;2313668;76;51511;-74
2023/03/23 00:54:59;;;;;;;;;;;;;;;19.35;56.31;99875.45;2347014;74;50262;-76
2023/03/23 00:58:01;;;;;;;;;;;;;;;19.33;56.42;99873.48;2317616;76;51602;-76
2023/03/23 01:01:03;;;;;;;;;;;;;;;19.33;56.52;99866.78;2317641;76;50607;-74
2023/03/23 01:04:05;;;;;;;;;;;;;;;19.34;56.36;99869.78;2347072;74;50400;-75
2023/03/23 01:07:08;;;;;;;;;;;;;;;19.32;56.52;99863.80;2347280;74;51490;-75
2023/03/23 01:10:12;;;;;;;;;;;;;;;19.33;56.37;99858.73;2347301;74;50433;-74
2023/03/23 01:13:13;;;;;;;;;;;;;;;19.33;56.41;99857.39;2347313;76;22291;-75
2023/03/23 01:16:14;;;;;;;;;;;;;;;19.33;56.47;99861.94;2347235;76;50320;-75
2023/03/23 01:19:16;;;;;;;;;;;;;;;19.32;56.37;99857.09;2317787;76;50070;-73
2023/03/23 01:22:17;;;;;;;;;;;;;;;19.31;56.59;99853.27;2305249;76;50715;-75
2023/03/23 01:25:19;;;;;;;;;;;;;;;19.33;56.39;99852.55;2346993;74;51514;-74
2023/03/23 01:28:20;;;;;;;;;;;;;;;19.31;56.37;99847.38;2317749;76;51496;-73
2023/03/23 01:31:23;;;;;;;;;;;;;;;19.32;56.43;99847.70;2347181;76;51408;-74
2023/03/23 01:34:24;;;;;;;;;;;;;;;19.31;56.30;99838.51;2317267;76;51793;-74
2023/03/23 01:37:26;;;;;;;;;;;;;;;19.29;56.46;99842.76;2330252;76;50630;-74
2023/03/23 01:40:28;;;;;;;;;;;;;;;19.28;56.44;99831.70;2313602;77;50276;-75
2023/03/23 01:43:29;;;;;;;;;;;;;;;19.31;56.31;99827.78;2313383;76;50344;-74
2023/03/23 01:46:32;;;;;;;;;;;;;;;19.30;56.35;99836.34;2257497;77;50908;-74
2023/03/23 01:49:35;;;;;;;;;;;;;;;19.28;56.38;99845.11;2313687;77;50481;-75
2023/03/23 01:52:36;;;;;;;;;;;;;;;19.28;56.36;99838.41;2321742;76;51307;-74
2023/03/23 01:55:38;;;;;;;;;;;;;;;19.30;56.33;99831.50;2311725;77;50580;-74
2023/03/23 01:58:40;;;;;;;;;;;;;;;19.29;56.23;99823.13;2280938;77;52514;-75
2023/03/23 02:01:44;;;;;;;;;;;;;;;19.27;56.47;99820.67;2311930;77;50233;-74
2023/03/23 02:04:45;;;;;;;;;;;;;;;19.27;56.35;99819.86;2311899;76;22441;-73
2023/03/23 02:07:47;;;;;;;;;;;;;;;19.27;56.31;99820.67;2311934;77;50078;-73
2023/03/23 02:10:49;;;;;;;;;;;;;;;19.27;56.28;99818.52;2280937;77;52745;-75
2023/03/23 02:13:50;;;;;;;;;;;;;;;19.27;56.30;99823.88;2281292;77;51557;-74
2023/03/23 02:17:05;;;;;;;;;;;;;;;19.26;56.25;99808.28;2312041;77;50220;-74
2023/03/23 02:20:09;;;;;;;;;;;;;;;19.26;56.21;99809.63;2312075;77;50184;-74
2023/03/23 02:23:15;;;;;;;;;;;;;;;19.25;56.28;99812.01;2292904;77;51224;-72
2023/03/23 02:26:27;;;;;;;;;;;;;;;19.25;56.28;99806.64;2312114;76;51424;-74
2023/03/23 02:29:43;;;;;;;;;;;;;;;19.24;56.27;99803.66;2311624;77;50292;-72
2023/03/23 02:32:53;;;;;;;;;;;;;;;19.23;56.42;99803.34;2311914;77;50337;-76
2023/03/23 02:35:57;;;;;;;;;;;;;;;19.24;56.22;99798.80;2280641;76;51567;-75
2023/03/23 02:39:00;;;;;;;;;;;;;;;19.23;56.31;99799.84;2311919;77;51612;-75
2023/03/23 02:42:03;;;;;;;;;;;;;;;19.25;56.16;99795.91;2312730;76;51468;-73
2023/03/23 02:45:05;;;;;;;;;;;;;;;19.22;56.37;99796.86;2280837;77;50148;-75
2023/03/23 02:48:06;;;;;;;;;;;;;;;19.23;56.19;99803.34;2280807;77;51891;-75
2023/03/23 02:51:08;;;;;;;;;;;;;;;19.22;56.35;99816.45;2316172;76;51445;-75
2023/03/23 02:54:10;;;;;;;;;;;;;;;19.23;56.14;99814.06;2318689;75;51367;-75
2023/03/23 02:57:11;;;;;;;;;;;;;;;19.22;56.22;99801.70;2312162;77;50202;-74
2023/03/23 03:00:13;;;;;;;;;;;;;;;19.23;56.19;99804.68;2280786;77;51108;-73
2023/03/23 03:03:16;;;;;;;;;;;;;;;19.23;56.13;99795.29;2280655;77;52395;-74
2023/03/23 03:06:25;;;;;;;;;;;;;;;19.22;56.16;99796.86;2311933;77;51515;-75
2023/03/23 03:09:38;;;;;;;;;;;;;;;19.20;56.34;99788.19;2311852;77;52517;-74
2023/03/23 03:12:45;;;;;;;;;;;;;;;19.20;56.32;99793.55;2280976;77;50699;-76
2023/03/23 03:15:48;;;;;;;;;;;;;;;19.17;56.44;99790.77;2311864;77;51519;-75
2023/03/23 03:18:51;;;;;;;;;;;;;;;19.18;56.34;99785.70;2312274;77;51464;-74
2023/03/23 03:21:54;;;;;;;;;;;;;;;19.16;56.67;99787.77;2324566;76;50490;-74
2023/03/23 03:24:56;;;;;;;;;;;;;;;19.16;56.52;99786.42;2282173;77;52362;-75
2023/03/23 03:27:58;;;;;;;;;;;;;;;19.15;56.67;99792.30;2313032;77;50775;-76
2023/03/23 03:31:01;;;;;;;;;;;;;;;19.15;56.50;99784.27;2315199;77;50799;-75
2023/03/23 03:34:03;;;;;;;;;;;;;;;19.14;56.70;99777.78;2312720;76;50690;-74
2023/03/23 03:37:05;;;;;;;;;;;;;;;19.14;56.67;99785.30;2281326;77;51243;-76
2023/03/23 03:40:11;;;;;;;;;;;;;;;19.15;56.48;99788.28;2312294;77;51505;-74
2023/03/23 03:43:13;;;;;;;;;;;;;;;19.17;56.50;99788.09;2314714;76;50758;-73
2023/03/23 03:46:15;;;;;;;;;;;;;;;19.14;56.56;99785.30;2313414;77;51287;-73
2023/03/23 03:49:16;;;;;;;;;;;;;;;19.16;56.42;99783.73;2281207;77;51093;-73
2023/03/23 03:52:18;;;;;;;;;;;;;;;19.13;56.74;99774.78;2293172;76;50705;-72
2023/03/23 03:55:20;;;;;;;;;;;;;;;19.16;56.59;99775.70;2283293;77;50695;-74
2023/03/23 03:58:22;;;;;;;;;;;;;;;19.15;56.63;99772.72;2313828;77;51380;-74
2023/03/23 04:01:23;;;;;;;;;;;;;;;19.16;56.63;99775.70;2280999;77;52525;-74
2023/03/23 04:04:25;;;;;;;;;;;;;;;19.13;56.69;99772.91;2280579;77;52055;-75
2023/03/23 04:07:29;;;;;;;;;;;;;;;19.16;56.46;99774.35;2312352;75;50210;-74
2023/03/23 04:10:30;;;;;;;;;;;;;;;19.14;56.49;99776.44;2324154;75;22388;-74
2023/03/23 04:13:31;;;;;;;;;;;;;;;19.14;56.54;99773.23;2280602;77;50994;-74
2023/03/23 04:16:34;;;;;;;;;;;;;;;19.12;56.53;99775.82;2280828;77;51417;-74
2023/03/23 04:19:36;;;;;;;;;;;;;;;19.13;56.46;99764.05;2312187;77;50453;-75
2023/03/23 04:22:43;;;;;;;;;;;;;;;19.12;56.58;99759.73;2312120;77;50622;-75
2023/03/23 04:25:45;;;;;;;;;;;;;;;19.12;56.63;99766.44;2311752;76;22360;-75
2023/03/23 04:28:45;;;;;;;;;;;;;;;19.12;56.54;99777.16;2281423;77;22962;-76
2023/03/23 04:31:50;;;;;;;;;;;;;;;19.13;56.70;99768.07;2311949;77;50830;-75
2023/03/23 04:34:50;;;;;;;;;;;;;;;19.12;56.63;99766.44;2311899;76;22437;-73
2023/03/23 04:37:52;;;;;;;;;;;;;;;19.10;56.74;99749.72;2280498;76;52902;-74
2023/03/23 04:40:54;;;;;;;;;;;;;;;19.10;56.74;99760.45;2291597;76;50119;-74
2023/03/23 04:43:56;;;;;;;;;;;;;;;19.11;56.59;99762.09;2311849;76;51567;-75
2023/03/23 04:47:01;;;;;;;;;;;;;;;19.11;56.60;99759.41;2312209;77;49968;-75
2023/03/23 04:50:03;;;;;;;;;;;;;;;19.11;56.61;99770.98;2312238;76;22864;-74
2023/03/23 04:53:04;;;;;;;;;;;;;;;19.11;56.57;99785.73;2311813;77;51583;-76
2023/03/23 04:56:06;;;;;;;;;;;;;;;19.11;56.63;99782.20;2280654;77;51664;-75
2023/03/23 04:59:07;;;;;;;;;;;;;;;19.12;56.44;99781.19;2255994;77;52593;-75
2023/03/23 05:02:10;;;;;;;;;;;;;;;19.10;56.50;99794.78;2312067;76;51533;-75
2023/03/23 05:05:12;;;;;;;;;;;;;;;19.09;56.47;99799.85;2280652;77;51494;-75
2023/03/23 05:08:14;;;;;;;;;;;;;;;19.09;56.61;99808.41;2318347;76;50401;-74
2023/03/23 05:11:16;;;;;;;;;;;;;;;19.07;56.73;99799.75;2317815;75;49819;-75
2023/03/23 05:14:17;;;;;;;;;;;;;;;19.09;56.41;99793.15;2256001;77;51193;-75
2023/03/23 05:17:19;;;;;;;;;;;;;;;19.08;56.85;99789.31;2280831;77;50283;-75
2023/03/23 05:20:21;;;;;;;;;;;;;;;19.06;56.60;99784.19;2312169;77;50720;-75
2023/03/23 05:23:27;;;;;;;;;;;;;;;19.07;56.77;99789.84;2312050;77;51490;-74
2023/03/23 05:26:28;;;;;;;;;;;;;;;19.06;56.80;99781.99;2312397;77;22347;-75
2023/03/23 05:29:35;;;;;;;;;;;;;;;19.07;56.58;99783.14;2281911;77;22634;-72
2023/03/23 05:32:33;;;;;;;;;;;;;;;19.04;57.23;99783.56;2311729;76;22373;-74
2023/03/23 05:35:34;;;;;;;;;;;;;;;19.04;57.23;99784.90;2311849;77;50729;-74
2023/03/23 05:38:38;;;;;;;;;;;;;;;19.04;57.79;99794.80;2290937;76;49511;-73
2023/03/23 05:41:39;;;;;;;;;;;;;;;19.02;57.79;99796.86;2282606;76;22396;-74
2023/03/23 05:44:41;;;;;;;;;;;;;;;19.01;57.96;99798.72;2311749;76;50245;-74
2023/03/23 05:47:42;;;;;;;;;;;;;;;19.02;57.75;99801.70;2312091;77;50244;-74
2023/03/23 05:50:45;;;;;;;;;;;;;;;18.99;57.84;99807.48;2312060;77;51471;-74
2023/03/23 05:53:47;;;;;;;;;;;;;;;19.04;57.46;99805.53;2311607;77;50724;-74
2023/03/23 05:56:49;;;;;;;;;;;;;;;19.10;57.08;99804.17;2311767;77;51370;-74
2023/03/23 05:59:52;;;;;;;;;;;;;;;19.12;57.09;99810.67;2313393;75;51450;-74
2023/03/23 06:02:56;;;;;;;;;;;;;;;19.11;57.13;99810.35;2316430;75;51237;-74
2023/03/23 06:05:58;;;;;;;;;;;;;;;19.07;57.53;99811.81;2307906;76;49859;-74
2023/03/23 06:09:00;;;;;;;;;;;;;;;19.04;57.72;99815.73;2308637;75;51586;-74
2023/03/23 06:12:02;;;;;;;;;;;;;;;19.03;57.71;99825.31;2310998;75;50777;-74
2023/03/23 06:15:06;;;;;;;;;;;;;;;19.01;57.81;99822.00;2299719;75;52487;-74
2023/03/23 06:18:07;;;;;;;;;;;;;;;19.00;57.88;99816.34;2287595;75;22302;-75
2023/03/23 06:21:09;;;;;;;;;;;;;;;19.07;57.94;99822.54;2278558;77;50650;-75
2023/03/23 06:24:11;;;;;;;;;;;;;;;19.09;58.09;99827.19;2305713;75;52414;-74
2023/03/23 06:27:13;;;;;;;;;;;;;;;19.09;59.03;99829.87;2291693;75;51480;-75
2023/03/23 06:30:15;;;;;;;;;;;;;;;19.09;59.22;99833.37;2274697;77;50526;-75
2023/03/23 06:33:17;;;;;;;;;;;;;;;19.06;59.14;99828.91;2305284;76;50223;-74
2023/03/23 06:36:18;;;;;;;;;;;;;;;19.05;59.22;99827.27;2305572;76;50209;-73
2023/03/23 06:39:20;;;;;;;;;;;;;;;19.05;59.52;99829.95;2305653;75;51538;-74
2023/03/23 06:42:24;;;;;;;;;;;;;;;19.03;59.52;99830.15;2316878;75;50676;-74
2023/03/23 06:45:26;;;;;;;;;;;;;;;19.04;59.17;99835.02;2274582;77;51623;-74
2023/03/23 06:48:27;;;;;;;;;;;;;;;19.06;58.45;99838.30;2306034;75;50230;-74
2023/03/23 06:51:29;;;;;;;;;;;;;;;19.05;58.86;99834.80;2274442;77;51645;-74
2023/03/23 06:54:31;;;;;;;;;;;;;;;19.08;58.85;99841.08;2284584;75;50754;-74
2023/03/23 06:57:32;;;;;;;;;;;;;;;19.08;59.17;99844.29;2306213;76;51552;-74
2023/03/23 07:00:34;;;;;;;;;;;;;;;19.07;59.27;99856.05;2274609;77;50276;-74
2023/03/23 07:03:36;;;;;;;;;;;;;;;19.08;59.30;99842.95;2274666;77;51670;-75
2023/03/23 07:06:38;;;;;;;;;;;;;;;19.04;59.31;99843.06;2307653;75;51663;-74
2023/03/23 07:09:39;;;;;;;;;;;;;;;19.03;59.12;99850.78;2323337;76;50731;-73
2023/03/23 07:12:41;;;;;;;;;;;;;;;19.02;59.04;99851.83;2347362;76;50588;-73
2023/03/23 07:15:43;;;;;;;;;;;;;;;19.03;58.93;99850.78;2291997;76;51214;-73
2023/03/23 07:18:45;;;;;;;;;;;;;;;19.02;58.93;99850.48;2318223;76;51493;-72
2023/03/23 07:21:47;;;;;;;;;;;;;;;19.01;58.99;99853.69;2347419;74;51576;-74
2023/03/23 07:24:49;;;;;;;;;;;;;;;19.05;58.65;99849.55;2340353;75;51541;-75
2023/03/23 07:27:51;;;;;;;;;;;;;;;19.02;58.83;99833.87;2293445;77;51686;-74
2023/03/23 07:30:52;;;;;;;;;;;;;;;19.04;58.72;99826.98;2312039;77;50706;-74
2023/03/23 07:33:54;;;;;;;;;;;;;;;19.04;58.60;99819.76;2280617;77;52193;-74
2023/03/23 07:36:56;;;;;;;;;;;;;;;19.02;58.66;99839.76;2312035;77;50625;-74
2023/03/23 07:39:57;;;;;;;;;;;;;;;19.06;58.38;99850.36;2255884;77;51210;-74
2023/03/23 07:42:59;;;;;;;;;;;;;;;19.05;58.30;99850.88;2312047;77;49912;-74
2023/03/23 07:46:01;;;;;;;;;;;;;;;19.06;58.28;99840.98;2311963;76;51509;-74
2023/03/23 07:49:05;;;;;;;;;;;;;;;19.07;58.11;99835.42;2312052;77;51476;-74
2023/03/23 07:52:05;;;;;;;;;;;;;;;19.04;58.38;99830.48;2312139;77;22815;-74
2023/03/23 07:55:08;;;;;;;;;;;;;;;19.03;58.17;99806.54;2279457;77;50329;-74
2023/03/23 07:58:09;;;;;;;;;;;;;;;19.07;58.05;99810.47;2323700;76;50564;-72
2023/03/23 08:01:12;;;;;;;;;;;;;;;19.08;57.94;99800.86;2280708;77;50647;-74
2023/03/23 08:04:15;;;;;;;;;;;;;;;19.07;58.08;99789.02;2280194;77;51261;-74
2023/03/23 08:07:17;;;;;;;;;;;;;;;19.06;58.02;99792.23;2280974;77;51575;-73
2023/03/23 08:10:18;;;;;;;;;;;;;;;19.09;57.77;99799.03;2311807;77;50404;-74
2023/03/23 08:13:20;;;;;;;;;;;;;;;19.04;58.07;99801.51;2280407;77;51503;-73
2023/03/23 08:16:22;;;;;;;;;;;;;;;19.04;58.03;99821.62;2280687;77;51011;-74
2023/03/23 08:19:23;;;;;;;;;;;;;;;19.05;57.96;99826.75;2280795;77;50256;-73
2023/03/23 08:22:25;;;;;;;;;;;;;;;19.06;57.91;99834.28;2311934;77;50014;-74
2023/03/23 08:25:26;;;;;;;;;;;;;;;19.10;57.67;99850.27;2311970;77;51523;-72
2023/03/23 08:28:28;;;;;;;;;;;;;;;19.10;57.66;99839.55;2293353;77;50975;-74
2023/03/23 08:31:30;;;;;;;;;;;;;;;19.18;57.47;99838.00;2280639;77;52147;-72
2023/03/23 08:34:32;;;;;;;;;;;;;;;19.17;57.43;99842.25;2311797;77;51398;-74
2023/03/23 08:37:34;;;;;;;;;;;;;;;19.22;57.39;99844.61;2311865;77;51476;-73
2023/03/23 08:40:36;;;;;;;;;;;;;;;19.28;57.36;99853.16;2281250;77;52592;-74
2023/03/23 08:43:39;;;;;;;;;;;;;;;19.29;57.34;99848.61;2280877;77;50324;-74
2023/03/23 08:46:41;;;;;;;;;;;;;;;19.26;57.32;99854.39;2312236;75;51610;-74
2023/03/23 08:49:43;;;;;;;;;;;;;;;19.30;57.24;99840.89;2312055;77;50729;-74
2023/03/23 08:52:44;;;;;;;;;;;;;;;19.27;57.28;99827.38;2255761;77;49626;-74
2023/03/23 08:55:46;;;;;;;;;;;;;;;19.23;57.26;99824.80;2312089;77;51512;-73
2023/03/23 08:58:48;;;;;;;;;;;;;;;19.15;57.54;99837.08;2288669;76;50237;-73
2023/03/23 09:01:50;;;;;;;;;;;;;;;19.10;57.67;99852.95;2292585;76;51524;-74
2023/03/23 09:04:52;;;;;;;;;;;;;;;19.12;57.58;99850.38;2280527;77;52349;-73
2023/03/23 09:07:54;;;;;;;;;;;;;;;19.15;57.75;99852.64;2280494;77;50345;-73
2023/03/23 09:11:00;;;;;;;;;;;;;;;19.16;57.52;99846.76;2311059;77;50665;-72
2023/03/23 09:14:02;;;;;;;;;;;;;;;19.18;57.38;99851.93;2310542;76;51650;-73
2023/03/23 09:17:05;;;;;;;;;;;;;;;19.18;57.35;99858.63;2312052;77;50300;-72
2023/03/23 09:20:13;;;;;;;;;;;;;;;19.19;57.31;99866.97;2280766;77;51559;-72
2023/03/23 09:23:15;;;;;;;;;;;;;;;19.18;57.29;99864.00;2311870;77;51506;-73
2023/03/23 09:26:16;;;;;;;;;;;;;;;19.18;57.26;99858.63;2312021;77;50722;-72
2023/03/23 09:29:19;;;;;;;;;;;;;;;19.14;57.40;99843.48;2257239;77;52367;-71
2023/03/23 09:32:22;;;;;;;;;;;;;;;19.15;57.27;99854.50;2283665;76;50488;-71
2023/03/23 09:35:24;;;;;;;;;;;;;;;19.15;57.27;99848.63;2283152;77;51638;-73
2023/03/23 09:38:25;;;;;;;;;;;;;;;19.15;57.24;99845.12;2282942;77;50352;-74
2023/03/23 09:41:45;;;;;;;;;;;;;;;19.16;57.20;99845.42;2257859;77;51415;-73
2023/03/23 09:45:04;;;;;;;;;;;;;;;19.18;57.15;99842.02;2313655;76;50696;-73
2023/03/23 09:48:07;;;;;;;;;;;;;;;19.18;57.11;99854.09;2313934;77;51475;-72
2023/03/23 09:51:11;;;;;;;;;;;;;;;19.17;57.07;99856.47;2313972;77;50280;-74
2023/03/23 09:54:30;;;;;;;;;;;;;;;19.18;57.08;99857.29;2313628;77;51484;-73
2023/03/23 09:57:46;;;;;;;;;;;;;;;19.17;57.12;99872.56;2316027;75;50387;-72
2023/03/23 10:00:49;;;;;;;;;;;;;;;19.16;57.14;99870.89;2335188;75;51540;-72
2023/03/23 10:03:52;;;;;;;;;;;;;;;19.15;57.14;99875.44;2347208;74;51410;-72
2023/03/23 10:06:58;;;;;;;;;;;;;;;19.15;57.15;99858.01;2309072;75;51183;-74
2023/03/23 10:10:02;;;;;;;;;;;;;;;19.15;57.14;99858.01;2296061;76;51163;-72
2023/03/23 10:13:05;;;;;;;;;;;;;;;19.15;57.15;99877.30;2347786;75;22240;-73
2023/03/23 10:16:12;;;;;;;;;;;;;;;19.15;57.09;99870.08;2346481;76;52045;-73
2023/03/23 10:19:25;;;;;;;;;;;;;;;19.14;57.11;99861.73;2318070;76;51714;-72
2023/03/23 10:22:28;;;;;;;;;;;;;;;19.14;57.13;99855.55;2347779;76;50773;-72
2023/03/23 10:25:30;;;;;;;;;;;;;;;19.14;57.06;99857.71;2346231;76;51501;-73
2023/03/23 10:28:36;;;;;;;;;;;;;;;19.14;57.03;99843.48;2318274;76;52383;-73
2023/03/23 10:31:40;;;;;;;;;;;;;;;19.15;57.03;99847.28;2318208;76;51513;-72
2023/03/23 10:34:46;;;;;;;;;;;;;;;19.15;57.05;99849.14;2343686;76;51559;-73
2023/03/23 10:37:50;;;;;;;;;;;;;;;19.14;57.02;99848.84;2351592;75;51520;-71
2023/03/23 10:40:53;;;;;;;;;;;;;;;19.15;57.01;99842.44;2325853;76;51520;-72
2023/03/23 10:43:55;;;;;;;;;;;;;;;19.14;57.00;99840.28;2311536;76;50822;-74
2023/03/23 10:46:59;;;;;;;;;;;;;;;19.15;56.98;99839.23;2281974;77;50023;-72
2023/03/23 10:50:02;;;;;;;;;;;;;;;19.15;57.01;99841.09;2312753;77;51510;-72
2023/03/23 10:53:05;;;;;;;;;;;;;;;19.14;56.99;99834.91;2346439;75;51463;-71
2023/03/23 10:56:09;;;;;;;;;;;;;;;19.16;56.98;99840.05;2282729;77;51739;-72
2023/03/23 10:59:12;;;;;;;;;;;;;;;19.16;56.94;99841.39;2310742;76;51566;-73
2023/03/23 11:02:16;;;;;;;;;;;;;;;19.13;56.96;99837.79;2279732;77;51808;-72
2023/03/23 11:05:19;;;;;;;;;;;;;;;19.12;56.96;99836.16;2314007;76;50649;-72
2023/03/23 11:08:22;;;;;;;;;;;;;;;19.13;56.99;99837.79;2281457;77;51726;-72
2023/03/23 11:11:31;;;;;;;;;;;;;;;19.13;56.95;99841.30;2312040;77;50251;-72
2023/03/23 11:14:37;;;;;;;;;;;;;;;19.13;56.92;99845.31;2310168;76;51431;-73
2023/03/23 11:17:37;;;;;;;;;;;;;;;19.13;56.95;99843.16;2312093;76;22486;-73
2023/03/23 11:20:41;;;;;;;;;;;;;;;19.13;56.96;99851.20;2280989;77;50831;-73
2023/03/23 11:23:44;;;;;;;;;;;;;;;19.13;56.93;99856.56;2323704;76;50753;-73
2023/03/23 11:26:47;;;;;;;;;;;;;;;19.13;56.92;99860.58;2324087;75;51479;-73
2023/03/23 11:29:55;;;;;;;;;;;;;;;19.13;56.90;99864.61;2275620;78;50664;-73
2023/03/23 11:33:00;;;;;;;;;;;;;;;19.13;56.89;99853.36;2275618;77;51562;-72
2023/03/23 11:36:01;;;;;;;;;;;;;;;19.12;56.88;99854.92;2275341;78;50476;-73
2023/03/23 11:39:05;;;;;;;;;;;;;;;19.13;56.88;99847.17;2275436;78;50429;-73
2023/03/23 11:42:13;;;;;;;;;;;;;;;19.12;56.92;99864.31;2275562;78;50522;-73
2023/03/23 11:45:19;;;;;;;;;;;;;;;19.14;56.86;99870.30;2270554;77;49901;-73
2023/03/23 11:48:28;;;;;;;;;;;;;;;19.13;56.85;99864.08;2270206;78;50439;-73
2023/03/23 11:51:35;;;;;;;;;;;;;;;19.13;56.86;99865.95;2275477;78;50898;-72
2023/03/23 11:54:41;;;;;;;;;;;;;;;19.12;56.86;99865.13;2275258;78;50738;-72
2023/03/23 11:57:42;;;;;;;;;;;;;;;19.14;56.83;99864.94;2291562;76;52393;-72
2023/03/23 12:00:46;;;;;;;;;;;;;;;19.13;56.81;99872.13;2312079;77;51563;-73
2023/03/23 12:03:59;;;;;;;;;;;;;;;19.14;56.83;99874.32;2311753;77;50391;-73
2023/03/23 12:07:11;;;;;;;;;;;;;;;19.13;56.83;99876.16;2312041;77;50659;-73
2023/03/23 12:10:22;;;;;;;;;;;;;;;19.14;56.83;99864.94;2280632;77;52336;-73
2023/03/23 12:13:37;;;;;;;;;;;;;;;19.14;56.78;99871.64;2311859;77;50316;-72
2023/03/23 12:16:47;;;;;;;;;;;;;;;19.13;56.79;99878.02;2312631;75;50411;-72
2023/03/23 12:19:50;;;;;;;;;;;;;;;19.12;56.79;99885.77;2312668;77;50753;-73
2023/03/23 12:22:53;;;;;;;;;;;;;;;19.12;56.82;99874.52;2235485;77;50302;-72
2023/03/23 12:26:00;;;;;;;;;;;;;;;19.13;56.78;99865.42;2311906;77;49999;-72
2023/03/23 12:29:20;;;;;;;;;;;;;;;19.11;56.83;99863.98;2315172;75;51577;-72
2023/03/23 12:32:32;;;;;;;;;;;;;;;19.10;56.83;99865.84;2316603;76;50392;-73
2023/03/23 12:35:51;;;;;;;;;;;;;;;19.12;56.77;99854.92;2311205;76;50340;-73
2023/03/23 12:39:12;;;;;;;;;;;;;;;19.10;56.80;99866.36;2311819;76;51573;-73
2023/03/23 12:42:18;;;;;;;;;;;;;;;19.09;56.82;99858.02;2312062;77;51532;-74
2023/03/23 12:45:40;;;;;;;;;;;;;;;19.10;56.76;99846.25;2311781;77;50803;-74
2023/03/23 12:48:53;;;;;;;;;;;;;;;19.09;56.79;99838.73;2311339;76;51630;-73
2023/03/23 12:52:11;;;;;;;;;;;;;;;19.09;56.77;99836.57;2311495;76;50363;-74
2023/03/23 12:55:23;;;;;;;;;;;;;;;19.09;56.76;99840.59;2312218;75;23220;-71
2023/03/23 12:58:26;;;;;;;;;;;;;;;19.08;56.75;99833.04;2319684;76;50790;-72
2023/03/23 13:01:29;;;;;;;;;;;;;;;19.09;56.76;99812.44;2335614;74;50710;-73
2023/03/23 13:04:34;;;;;;;;;;;;;;;19.10;56.71;99817.58;2317497;76;51488;-72
2023/03/23 13:07:38;;;;;;;;;;;;;;;19.10;56.71;99838.20;2331462;75;51434;-72
2023/03/23 13:10:41;;;;;;;;;;;;;;;19.12;56.67;99847.70;2323797;76;51441;-72
2023/03/23 13:13:48;;;;;;;;;;;;;;;19.12;56.64;99841.52;2310785;76;50675;-73
2023/03/23 13:17:08;;;;;;;;;;;;;;;19.12;56.61;99845.02;2280796;77;52399;-73
2023/03/23 13:20:24;;;;;;;;;;;;;;;19.12;56.65;99845.02;2312048;77;50253;-73
2023/03/23 13:23:28;;;;;;;;;;;;;;;19.12;56.60;99839.66;2263164;77;51439;-73
2023/03/23 13:26:29;;;;;;;;;;;;;;;19.14;56.57;99839.45;2312245;76;51633;-73
2023/03/23 13:29:32;;;;;;;;;;;;;;;19.14;56.57;99840.80;2281447;77;49643;-73
2023/03/23 13:32:37;;;;;;;;;;;;;;;19.11;56.59;99829.97;2312027;77;51567;-73
2023/03/23 13:35:39;;;;;;;;;;;;;;;19.12;56.59;99838.83;2311826;77;50730;-73
2023/03/23 13:38:48;;;;;;;;;;;;;;;19.14;56.56;99831.41;2323097;76;50440;-72
2023/03/23 13:41:51;;;;;;;;;;;;;;;19.12;56.60;99817.38;2270146;78;51288;-72
2023/03/23 13:44:54;;;;;;;;;;;;;;;19.12;56.60;99805.31;2264460;77;50290;-72
2023/03/23 13:48:16;;;;;;;;;;;;;;;19.12;56.60;99812.02;2275507;77;50419;-72
2023/03/23 13:51:23;;;;;;;;;;;;;;;19.14;56.57;99813.98;2275477;78;50322;-74
2023/03/23 13:54:41;;;;;;;;;;;;;;;19.15;56.56;99798.19;2244743;78;52491;-73
2023/03/23 13:57:50;;;;;;;;;;;;;;;19.13;56.64;99804.27;2270148;78;49969;-71
2023/03/23 14:00:53;;;;;;;;;;;;;;;19.10;56.76;99804.69;2275497;77;50311;-71
2023/03/23 14:03:55;;;;;;;;;;;;;;;19.09;56.68;99801.19;2274874;77;50308;-73
2023/03/23 14:06:58;;;;;;;;;;;;;;;19.08;56.68;99794.16;2277737;77;52613;-72
2023/03/23 14:10:01;;;;;;;;;;;;;;;19.14;56.59;99808.63;2323744;76;50372;-72
2023/03/23 14:13:03;;;;;;;;;;;;;;;19.13;56.65;99816.34;2311161;76;50274;-73
2023/03/23 14:16:06;;;;;;;;;;;;;;;19.06;56.87;99819.53;2312179;75;51554;-72
2023/03/23 14:19:15;;;;;;;;;;;;;;;19.10;56.75;99816.76;2293227;77;50963;-72
2023/03/23 14:22:20;;;;;;;;;;;;;;;19.07;56.87;99815.31;2311975;77;50853;-72
2023/03/23 14:25:23;;;;;;;;;;;;;;;19.03;57.01;99808.70;2311755;77;51549;-72
2023/03/23 14:28:26;;;;;;;;;;;;;;;19.04;56.91;99817.08;2311965;77;51465;-73
2023/03/23 14:31:28;;;;;;;;;;;;;;;19.04;56.88;99817.08;2280868;75;52364;-72
2023/03/23 14:34:30;;;;;;;;;;;;;;;19.05;56.82;99822.73;2332351;76;51475;-72
2023/03/23 14:37:32;;;;;;;;;;;;;;;19.06;56.78;99822.21;2347367;75;50309;-72
2023/03/23 14:40:33;;;;;;;;;;;;;;;19.05;56.77;99825.41;2347448;75;50364;-73
2023/03/23 14:43:35;;;;;;;;;;;;;;;19.04;56.75;99821.09;2291731;76;51904;-74
2023/03/23 14:46:37;;;;;;;;;;;;;;;19.04;56.75;99817.08;2347608;76;50365;-73
2023/03/23 14:49:39;;;;;;;;;;;;;;;19.03;56.75;99801.18;2347535;75;50319;-73
2023/03/23 14:52:41;;;;;;;;;;;;;;;19.04;56.71;99810.89;2330496;74;50704;-71
2023/03/23 14:55:43;;;;;;;;;;;;;;;19.03;56.68;99821.29;2255659;77;51187;-71
2023/03/23 14:58:45;;;;;;;;;;;;;;;19.03;56.71;99827.99;2311824;77;51596;-73
2023/03/23 15:01:47;;;;;;;;;;;;;;;19.05;56.60;99827.27;2312055;77;52376;-73
2023/03/23 15:04:50;;;;;;;;;;;;;;;19.02;56.64;99821.81;2311919;77;50694;-73
2023/03/23 15:07:54;;;;;;;;;;;;;;;19.04;56.61;99823.78;2280799;77;51799;-73
2023/03/23 15:10:57;;;;;;;;;;;;;;;19.05;56.56;99828.09;2312203;77;51464;-73
2023/03/23 15:14:03;;;;;;;;;;;;;;;19.04;56.63;99823.78;2311848;77;51590;-73
2023/03/23 15:17:02;;;;;;;;;;;;;;;19.02;56.61;99823.16;2315689;75;22362;-73
2023/03/23 15:20:09;;;;;;;;;;;;;;;19.03;56.65;99827.47;2289504;76;52477;-73
2023/03/23 15:23:15;;;;;;;;;;;;;;;19.03;56.73;99826.65;2308897;76;51493;-74
2023/03/23 15:26:18;;;;;;;;;;;;;;;19.00;56.95;99843.16;2309948;76;50328;-73
2023/03/23 15:29:23;;;;;;;;;;;;;;;19.02;56.90;99820.47;2307967;76;50445;-72
2023/03/23 15:32:26;;;;;;;;;;;;;;;19.03;56.85;99797.98;2280837;77;51269;-74
2023/03/23 15:35:28;;;;;;;;;;;;;;;19.03;56.83;99793.95;2311901;77;50405;-72
2023/03/23 15:38:30;;;;;;;;;;;;;;;19.04;56.88;99805.01;2280791;77;50197;-74
2023/03/23 15:41:35;;;;;;;;;;;;;;;19.04;56.93;99807.69;2311963;77;50761;-72
2023/03/23 15:44:36;;;;;;;;;;;;;;;19.06;56.85;99796.73;2280623;77;51456;-71
2023/03/23 15:47:45;;;;;;;;;;;;;;;19.05;56.92;99801.80;2334160;76;50253;-72
2023/03/23 15:50:47;;;;;;;;;;;;;;;19.04;57.00;99809.55;2312063;77;50430;-71
2023/03/23 15:53:50;;;;;;;;;;;;;;;19.02;56.98;99811.61;2311781;77;50858;-73
2023/03/23 15:56:52;;;;;;;;;;;;;;;19.01;57.04;99813.95;2280899;77;51814;-73